Time;durP1;ratioP1;P1;durP2;ratioP2;P2;SDS_P1;SDS_P2;PMS_P1;PMS_P2;Temp;Humidity;BMP_temperature;BMP_pressure;BME280_temperature;BME280_humidity;BME280_pressure;Samples;Min_cycle;Max_cycle;Signal;HPM_P1;HPM_P2
2022/06/13 04:37:28;;;;;;;3.30;2.00;;;11.70;99.90;;;;;;4845762;29;20303;-90
2022/06/13 04:40:02;;;;;;;7.43;2.00;;;11.80;99.90;;;;;;4843896;29;20219;-89
2022/06/13 04:42:37;;;;;;;4.57;2.00;;;11.80;99.90;;;;;;4834499;29;20215;-86
2022/06/13 04:45:16;;;;;;;4.70;2.13;;;11.80;99.90;;;;;;4843256;29;20212;-93
2022/06/13 04:47:50;;;;;;;5.73;2.03;;;11.80;99.90;;;;;;4852262;29;20227;-93
2022/06/13 04:50:27;;;;;;;8.53;2.13;;;11.80;99.90;;;;;;4858108;29;20642;-95
2022/06/13 04:53:10;;;;;;;5.40;1.83;;;11.80;99.90;;;;;;4858217;29;20248;-95
2022/06/13 05:01:28;;;;;;;6.20;2.20;;;11.50;99.90;;;;;;5064973;23;20253;-96
2022/06/13 05:04:17;;;;;;;5.90;2.53;;;11.40;99.90;;;;;;4875710;29;20223;-96
2022/06/13 05:06:51;;;;;;;5.10;2.07;;;11.60;99.90;;;;;;4869083;29;20239;-96
2022/06/13 05:09:31;;;;;;;5.83;2.43;;;11.60;99.90;;;;;;4878047;29;20250;-96
2022/06/13 05:12:10;;;;;;;6.27;2.17;;;11.50;99.90;;;;;;4860807;29;20272;-96
2022/06/13 05:14:48;;;;;;;5.73;2.00;;;11.40;99.90;;;;;;4860932;29;20248;-96
2022/06/13 05:18:00;;;;;;;8.83;2.40;;;11.30;99.90;;;;;;4877949;29;20209;-96
2022/06/13 05:20:42;;;;;;;5.23;2.17;;;11.20;99.90;;;;;;4872188;29;20643;-96
2022/06/13 05:23:39;;;;;;;3.73;2.00;;;11.30;99.90;;;;;;4880133;29;20215;-96
2022/06/13 05:26:14;;;;;;;7.60;2.40;;;11.40;99.90;;;;;;4881398;29;20219;-96
2022/06/13 05:31:33;;;;;;;7.23;2.57;;;11.50;99.90;;;;;;4881410;29;20203;-96
2022/06/13 05:34:07;;;;;;;7.03;2.43;;;11.50;99.90;;;;;;4881558;29;20223;-94
2022/06/13 05:36:39;;;;;;;7.73;2.13;;;11.50;99.90;;;;;;4904434;24;20267;-94
2022/06/13 05:39:10;;;;;;;9.23;2.27;;;11.40;99.90;;;;;;4882077;29;20199;-96
2022/06/13 05:41:45;;;;;;;5.03;2.27;;;11.40;99.90;;;;;;4878981;29;20265;-95
2022/06/13 05:44:27;;;;;;;7.03;2.57;;;11.40;99.90;;;;;;4880907;29;20218;-96
2022/06/13 05:47:19;;;;;;;6.17;2.00;;;11.50;99.90;;;;;;4883328;29;20207;-96
2022/06/13 05:49:51;;;;;;;4.13;1.97;;;11.20;99.90;;;;;;4881207;29;20290;-96
2022/06/13 05:52:23;;;;;;;8.27;2.57;;;11.20;99.90;;;;;;4865597;29;20265;-96
2022/06/13 05:54:54;;;;;;;5.50;2.10;;;11.40;99.90;;;;;;4853721;29;20233;-93
2022/06/13 05:57:32;;;;;;;5.97;2.30;;;11.40;99.90;;;;;;4854894;29;20216;-96
2022/06/13 06:00:07;;;;;;;14.63;2.30;;;11.40;99.90;;;;;;4878125;29;20263;-96
2022/06/13 06:02:41;;;;;;;4.83;2.00;;;11.50;99.90;;;;;;4869430;29;20271;-96
2022/06/13 06:05:13;;;;;;;3.70;1.90;;;11.50;99.90;;;;;;4862369;29;20208;-96
2022/06/13 06:07:44;;;;;;;5.17;1.73;;;11.60;99.90;;;;;;4866206;29;20209;-96
2022/06/13 06:10:22;;;;;;;5.37;1.77;;;11.50;99.90;;;;;;4858384;29;20239;-96
2022/06/13 06:13:06;;;;;;;5.60;2.30;;;11.40;99.90;;;;;;4861245;29;20242;-96
2022/06/13 06:18:33;;;;;;;6.03;1.40;;;11.40;99.90;;;;;;4882913;29;20211;-96
2022/06/13 06:21:13;;;;;;;3.47;1.10;;;11.20;99.90;;;;;;4882508;29;20217;-96
2022/06/13 06:26:37;;;;;;;2.37;0.97;;;11.00;99.90;;;;;;5004490;23;20341;-95
2022/06/13 06:29:18;;;;;;;3.37;0.97;;;11.20;99.90;;;;;;4866294;29;20232;-96
2022/06/13 06:31:50;;;;;;;1.93;0.80;;;11.10;99.90;;;;;;4883462;29;20349;-96
2022/06/13 06:34:30;;;;;;;2.73;0.70;;;11.00;99.90;;;;;;4884267;29;20191;-95
2022/06/13 07:07:55;;;;;;;1.33;0.70;;;10.60;99.90;;;;;;4874138;29;20261;-95
2022/06/13 07:10:32;;;;;;;3.80;0.73;;;10.60;99.90;;;;;;4875606;29;20233;-96
2022/06/13 07:13:10;;;;;;;3.63;0.83;;;10.60;99.90;;;;;;4879762;29;20288;-96
2022/06/13 07:18:24;;;;;;;5.23;0.57;;;10.50;99.90;;;;;;4857611;29;20230;-96
2022/06/13 07:31:47;;;;;;;3.10;0.40;;;10.40;99.90;;;;;;5693171;24;20230;-96
2022/06/13 07:42:34;;;;;;;2.73;0.70;;;10.30;99.90;;;;;;4882884;29;20286;-96
2022/06/13 07:45:06;;;;;;;1.27;0.53;;;10.20;99.90;;;;;;4892070;29;20206;-96
2022/06/13 07:47:59;;;;;;;3.03;0.80;;;10.20;99.90;;;;;;4890403;29;20194;-96
2022/06/13 07:50:33;;;;;;;3.17;0.90;;;10.20;99.90;;;;;;4883059;29;20210;-96
2022/06/13 07:53:08;;;;;;;2.33;1.10;;;10.20;99.90;;;;;;4890767;29;20193;-96
2022/06/13 08:08:55;;;;;;;1.70;0.70;;;10.20;99.90;;;;;;4874477;29;20203;-96
2022/06/13 08:11:33;;;;;;;1.53;0.67;;;10.20;99.90;;;;;;4867472;29;20198;-96
2022/06/13 08:14:06;;;;;;;2.40;0.40;;;10.20;99.90;;;;;;4868615;29;20247;-96
2022/06/13 08:16:40;;;;;;;7.30;1.07;;;10.10;99.90;;;;;;4864021;29;20326;-96
2022/06/13 08:19:49;;;;;;;1.20;0.50;;;10.10;99.90;;;;;;4864874;29;20215;-96
2022/06/13 08:22:22;;;;;;;2.00;0.50;;;10.10;99.90;;;;;;4868921;29;20246;-96
2022/06/13 08:24:58;;;;;;;2.07;0.63;;;10.10;99.90;;;;;;4863266;29;20231;-96
2022/06/13 08:47:48;;;;;;;2.07;0.93;;;10.30;99.90;;;;;;5822868;23;20192;-96
2022/06/13 08:50:28;;;;;;;1.87;0.73;;;10.30;99.90;;;;;;4863417;29;20200;-96
2022/06/13 08:53:05;;;;;;;5.03;1.50;;;10.20;99.90;;;;;;4866844;29;20192;-96
2022/06/13 08:55:42;;;;;;;4.80;1.30;;;10.20;99.90;;;;;;4862181;29;20215;-96
2022/06/13 08:58:23;;;;;;;3.77;1.03;;;10.20;99.90;;;;;;4852013;29;20281;-96
2022/06/13 09:00:59;;;;;;;3.63;1.27;;;10.20;99.90;;;;;;4834978;29;20248;-96
2022/06/13 09:03:38;;;;;;;3.67;1.00;;;10.20;99.90;;;;;;4836782;29;20208;-96
2022/06/13 09:06:16;;;;;;;4.07;1.10;;;10.30;99.90;;;;;;4837619;29;20738;-96
2022/06/13 09:08:54;;;;;;;3.43;0.80;;;10.30;99.90;;;;;;4844463;29;20655;-96
2022/06/13 09:11:31;;;;;;;2.97;0.93;;;10.20;99.90;;;;;;4850324;29;20640;-96
2022/06/13 09:14:12;;;;;;;5.70;1.00;;;10.00;99.90;;;;;;4852401;29;20592;-96
2022/06/13 09:17:14;;;;;;;3.07;1.07;;;10.00;99.90;;;;;;4896882;24;20369;-96
2022/06/13 09:19:55;;;;;;;1.93;0.70;;;10.10;99.90;;;;;;4854589;29;20227;-96
2022/06/13 09:22:32;;;;;;;2.83;0.97;;;10.10;99.90;;;;;;4850651;29;20228;-96
2022/06/13 09:25:10;;;;;;;3.50;0.80;;;10.20;99.90;;;;;;4851358;29;20215;-96
2022/06/13 09:27:48;;;;;;;1.07;0.50;;;10.30;99.90;;;;;;4850974;29;20220;-96
2022/06/13 09:30:26;;;;;;;1.47;0.60;;;10.30;99.90;;;;;;4849878;29;20226;-96
2022/06/13 09:33:05;;;;;;;3.93;0.70;;;10.10;99.90;;;;;;4850027;29;20215;-96
2022/06/13 09:35:51;;;;;;;3.63;0.80;;;10.00;99.90;;;;;;4851312;29;20771;-96
2022/06/13 09:38:26;;;;;;;7.43;0.87;;;10.10;99.90;;;;;;4835881;29;20216;-96
2022/06/13 09:41:34;;;;;;;1.40;1.00;;;10.00;99.90;;;;;;4850696;29;20239;-96
2022/06/13 09:44:31;;;;;;;2.47;1.00;;;10.00;99.90;;;;;;4853258;29;20244;-96
2022/06/13 09:47:11;;;;;;;1.67;1.00;;;10.00;99.90;;;;;;4850134;29;20323;-95
2022/06/13 09:49:55;;;;;;;2.47;1.10;;;9.80;99.90;;;;;;4850305;29;20225;-96
2022/06/13 09:52:38;;;;;;;2.40;0.90;;;9.60;99.90;;;;;;4851922;29;20246;-96
2022/06/13 09:55:23;;;;;;;1.70;1.17;;;9.40;99.90;;;;;;4856604;29;20223;-96
2022/06/13 09:58:08;;;;;;;4.20;1.40;;;9.40;99.90;;;;;;4852718;29;20203;-96
2022/06/13 10:00:44;;;;;;;2.43;1.50;;;9.40;99.90;;;;;;4852147;29;20255;-96
2022/06/13 10:06:22;;;;;;;6.60;1.40;;;9.20;99.90;;;;;;4852829;29;20234;-96
2022/06/13 10:09:06;;;;;;;1.00;0.90;;;9.20;99.90;;;;;;4852190;29;20256;-96
2022/06/13 10:11:52;;;;;;;3.07;1.03;;;9.20;99.90;;;;;;4851946;29;20231;-95
2022/06/13 10:14:35;;;;;;;4.43;1.30;;;9.10;99.90;;;;;;4853707;29;20220;-96
2022/06/13 10:20:18;;;;;;;3.07;1.10;;;9.20;99.90;;;;;;4852051;29;20270;-96
2022/06/13 10:23:00;;;;;;;1.70;1.00;;;9.20;99.90;;;;;;4852631;29;20704;-96
2022/06/13 10:25:47;;;;;;;2.83;0.80;;;9.30;99.90;;;;;;4820265;29;20221;-96
2022/06/13 10:28:39;;;;;;;2.10;0.83;;;9.30;99.90;;;;;;4830878;29;20227;-96
2022/06/13 10:31:23;;;;;;;2.57;0.80;;;9.20;99.90;;;;;;4834408;29;20208;-96
2022/06/13 10:34:04;;;;;;;1.93;0.83;;;9.30;99.90;;;;;;4837816;29;20288;-96
2022/06/13 10:36:57;;;;;;;2.47;0.73;;;9.40;99.90;;;;;;4839624;29;20212;-96
2022/06/13 10:39:35;;;;;;;3.10;0.90;;;9.40;99.90;;;;;;4837380;29;20279;-96
2022/06/13 10:42:16;;;;;;;1.67;0.83;;;9.30;99.90;;;;;;4837110;29;20254;-96
2022/06/13 10:47:48;;;;;;;3.30;0.80;;;9.40;99.90;;;;;;4855876;29;20574;-95
2022/06/13 10:50:41;;;;;;;1.07;0.63;;;9.50;99.90;;;;;;4862117;29;20211;-95
2022/06/13 10:53:22;;;;;;;3.43;0.93;;;9.40;99.90;;;;;;4857953;29;20291;-96
2022/06/13 10:55:56;;;;;;;1.80;0.70;;;9.40;99.90;;;;;;4860741;29;20195;-95
2022/06/13 10:58:37;;;;;;;2.43;0.80;;;9.60;99.90;;;;;;4864027;29;20243;-96
2022/06/13 11:01:12;;;;;;;2.73;0.70;;;9.70;99.90;;;;;;4858571;29;20240;-96
2022/06/13 11:06:53;;;;;;;3.27;0.60;;;9.50;99.90;;;;;;4863995;29;20214;-96
2022/06/13 11:09:32;;;;;;;1.00;0.37;;;9.50;99.90;;;;;;4860701;29;20304;-95
2022/06/13 11:12:06;;;;;;;3.47;0.60;;;9.50;99.90;;;;;;4854487;29;20574;-96
2022/06/13 11:22:37;;;;;;;3.23;0.70;;;9.50;99.90;;;;;;4851878;29;20207;-96
2022/06/13 11:23:14;;;;;;;3.03;0.70;;;9.30;99.90;;;;;;4854626;29;20223;-96
2022/06/13 11:25:59;;;;;;;2.03;0.50;;;9.30;99.90;;;;;;4849705;29;20208;-96
2022/06/13 11:28:41;;;;;;;2.20;0.60;;;9.20;99.90;;;;;;4851934;29;20401;-96
2022/06/13 11:31:25;;;;;;;1.13;0.50;;;9.30;99.90;;;;;;4850724;29;20299;-96
2022/06/13 11:33:58;;;;;;;1.13;0.60;;;9.30;99.90;;;;;;4835691;29;20253;-96
2022/06/13 11:36:30;;;;;;;1.20;0.63;;;9.30;99.90;;;;;;4842714;29;20211;-91
2022/06/13 11:39:06;;;;;;;0.90;0.50;;;9.40;99.90;;;;;;4844005;29;20220;-96
2022/06/13 11:41:42;;;;;;;1.13;0.40;;;9.40;99.90;;;;;;4842971;29;20243;-96
2022/06/13 11:44:17;;;;;;;2.37;0.60;;;9.40;99.90;;;;;;4842812;29;20208;-96
2022/06/13 11:46:59;;;;;;;2.60;0.70;;;9.40;99.90;;;;;;4838748;29;20224;-96
2022/06/13 11:49:34;;;;;;;1.13;0.60;;;9.40;99.90;;;;;;4832873;29;20276;-96
2022/06/13 11:55:15;;;;;;;1.50;0.50;;;9.40;99.90;;;;;;4835720;29;20232;-96
2022/06/13 11:57:54;;;;;;;1.03;0.50;;;9.30;99.90;;;;;;4846673;29;20220;-96
2022/06/13 12:00:31;;;;;;;1.60;0.50;;;9.40;99.90;;;;;;4844608;29;20204;-96
2022/06/13 12:03:27;;;;;;;1.70;0.57;;;9.40;99.90;;;;;;4844443;29;20232;-96
2022/06/13 12:06:16;;;;;;;2.87;0.60;;;9.40;99.90;;;;;;4843386;29;20216;-96
2022/06/13 12:08:52;;;;;;;0.60;0.50;;;9.30;99.90;;;;;;4833208;29;20281;-96
2022/06/13 12:11:28;;;;;;;1.17;0.63;;;9.40;99.90;;;;;;4831894;29;20212;-96
2022/06/13 12:14:01;;;;;;;3.53;0.60;;;9.40;99.90;;;;;;4835718;29;20220;-96
2022/06/13 12:16:41;;;;;;;3.73;0.77;;;9.40;99.90;;;;;;4830408;29;20674;-96
2022/06/13 12:19:34;;;;;;;2.00;0.60;;;9.40;99.90;;;;;;4830473;29;20250;-96
2022/06/13 12:22:19;;;;;;;2.77;0.70;;;9.30;99.90;;;;;;4835467;29;20246;-96
2022/06/13 12:25:02;;;;;;;3.07;1.37;;;9.40;99.90;;;;;;4852594;29;20291;-96
2022/06/13 12:27:49;;;;;;;1.53;0.40;;;9.50;99.90;;;;;;4856019;29;20218;-96
2022/06/13 12:30:52;;;;;;;1.13;0.67;;;9.40;99.90;;;;;;4867051;29;20215;-96
2022/06/13 12:33:47;;;;;;;2.00;0.70;;;9.40;99.90;;;;;;4872616;29;20243;-95
2022/06/13 12:36:46;;;;;;;2.97;0.60;;;9.40;99.90;;;;;;4868519;29;20218;-96
2022/06/13 12:39:43;;;;;;;1.87;0.60;;;9.50;99.90;;;;;;4863525;29;20222;-96
2022/06/13 12:42:27;;;;;;;1.13;0.63;;;9.50;99.90;;;;;;4848013;29;20614;-96
2022/06/13 12:45:21;;;;;;;1.47;0.50;;;9.50;99.90;;;;;;4846978;29;20219;-96
2022/06/13 12:48:03;;;;;;;1.67;0.80;;;9.50;99.90;;;;;;4846935;29;20216;-94
2022/06/13 12:50:58;;;;;;;2.07;0.60;;;9.50;99.90;;;;;;4848619;29;20212;-96
2022/06/13 12:53:55;;;;;;;2.47;0.60;;;9.50;99.90;;;;;;4851586;29;20227;-96
2022/06/13 12:56:31;;;;;;;4.20;0.87;;;9.60;99.90;;;;;;4852703;29;20239;-96
2022/06/13 12:59:24;;;;;;;1.77;0.70;;;9.50;99.90;;;;;;4866394;29;20200;-96
2022/06/13 13:02:17;;;;;;;2.37;0.50;;;9.50;99.90;;;;;;4855433;29;20249;-96
2022/06/13 13:05:17;;;;;;;2.50;0.63;;;9.50;99.90;;;;;;4851187;29;20714;-95
2022/06/13 13:08:02;;;;;;;3.10;0.77;;;9.40;99.90;;;;;;4852013;29;20212;-96
2022/06/13 13:11:01;;;;;;;3.57;0.93;;;9.50;99.90;;;;;;4849553;29;20311;-96
2022/06/13 13:13:49;;;;;;;3.00;0.83;;;9.50;99.90;;;;;;4853238;29;20211;-96
2022/06/13 13:16:35;;;;;;;2.20;0.43;;;9.50;99.90;;;;;;4834955;29;20220;-96
2022/06/13 13:19:38;;;;;;;4.27;1.10;;;9.60;99.90;;;;;;4848503;29;20205;-96
2022/06/13 13:22:15;;;;;;;3.67;0.57;;;9.60;99.90;;;;;;4848369;29;20236;-96
2022/06/13 13:25:00;;;;;;;3.37;0.80;;;9.70;99.90;;;;;;4847813;29;20212;-96
2022/06/13 13:27:38;;;;;;;2.50;0.63;;;9.70;99.90;;;;;;4843035;29;20217;-96
2022/06/13 13:30:20;;;;;;;1.97;0.70;;;9.70;99.90;;;;;;4854514;29;20220;-96
2022/06/13 13:33:07;;;;;;;2.23;0.70;;;9.70;99.90;;;;;;4850486;29;20215;-96
2022/06/13 13:35:44;;;;;;;3.63;0.80;;;9.70;99.90;;;;;;4848039;29;20216;-96
2022/06/13 13:38:24;;;;;;;2.23;0.60;;;9.80;99.90;;;;;;4848051;29;20231;-96
2022/06/13 13:41:09;;;;;;;3.90;0.87;;;9.70;99.90;;;;;;4852122;29;20596;-96
2022/06/13 13:44:05;;;;;;;2.07;0.80;;;9.80;99.90;;;;;;4854657;29;20258;-96
2022/06/13 13:46:44;;;;;;;3.60;0.60;;;9.70;99.90;;;;;;4854294;29;20221;-95
2022/06/13 13:49:25;;;;;;;4.40;0.80;;;9.80;99.90;;;;;;4840716;29;20216;-96
2022/06/13 13:52:05;;;;;;;4.87;0.80;;;9.80;99.90;;;;;;4836579;29;20251;-96
2022/06/13 13:54:53;;;;;;;4.33;0.63;;;9.90;99.90;;;;;;4838061;29;20212;-96
2022/06/13 13:57:33;;;;;;;3.77;0.70;;;9.80;99.90;;;;;;4848290;29;20219;-96
2022/06/13 14:00:34;;;;;;;3.33;0.70;;;9.90;99.90;;;;;;4849906;29;20214;-96
2022/06/13 14:03:19;;;;;;;4.80;0.90;;;10.00;99.90;;;;;;4848548;29;20852;-96
2022/06/13 14:09:07;;;;;;;3.17;0.73;;;9.80;99.90;;;;;;4865098;29;20215;-96
2022/06/13 14:12:04;;;;;;;3.17;0.80;;;9.90;99.90;;;;;;5131097;24;20284;-96
2022/06/13 14:15:08;;;;;;;4.83;0.80;;;9.80;99.90;;;;;;4858685;29;20231;-96
2022/06/13 14:21:01;;;;;;;4.57;0.70;;;10.00;99.90;;;;;;4846748;29;20212;-96
2022/06/13 14:37:14;;;;;;;3.30;0.90;;;10.50;99.90;;;;;;4794303;30;20244;-96
2022/06/13 14:39:55;;;;;;;4.90;1.20;;;10.30;99.90;;;;;;4792488;29;20225;-96
2022/06/13 14:42:39;;;;;;;1.57;0.70;;;10.30;99.90;;;;;;4814023;29;20678;-96
2022/06/13 14:45:14;;;;;;;6.13;1.27;;;10.20;99.90;;;;;;4818044;29;20272;-96
2022/06/13 14:48:12;;;;;;;3.57;1.17;;;10.10;99.90;;;;;;4824995;29;20258;-96
2022/06/13 14:51:05;;;;;;;4.03;0.73;;;10.10;99.90;;;;;;4826581;29;20224;-96
2022/06/13 14:53:50;;;;;;;5.47;1.00;;;10.10;99.90;;;;;;4823353;29;20213;-96
2022/06/13 15:03:28;;;;;;;3.40;0.80;;;10.40;99.90;;;;;;4808760;29;20248;-96
2022/06/13 15:44:48;;;;;;;5.93;0.90;;;10.80;99.90;;;;;;5698286;24;20245;-96
2022/06/13 15:47:23;;;;;;;4.13;1.00;;;10.60;99.90;;;;;;4878992;29;20210;-96
2022/06/13 15:49:56;;;;;;;3.03;1.00;;;10.80;99.90;;;;;;4874083;29;20311;-96
2022/06/13 15:52:38;;;;;;;2.80;0.97;;;11.00;99.90;;;;;;4871822;29;20215;-96
2022/06/13 15:55:14;;;;;;;1.70;0.67;;;10.90;99.90;;;;;;4879496;29;20263;-96
2022/06/13 15:57:51;;;;;;;4.17;0.90;;;10.90;99.90;;;;;;4878965;29;20216;-96
2022/06/13 16:00:36;;;;;;;7.37;1.17;;;10.90;99.90;;;;;;4869763;29;20218;-95
2022/06/13 16:03:11;;;;;;;4.20;0.80;;;10.80;99.90;;;;;;4868333;29;20245;-95
2022/06/13 16:05:45;;;;;;;2.57;0.80;;;10.70;99.90;;;;;;4878776;29;20282;-94
2022/06/13 18:37:32;;;;;;;2.37;0.43;;;13.80;99.90;;;;;;5542901;23;20685;-89
2022/06/13 18:40:07;;;;;;;1.03;0.40;;;13.30;99.90;;;;;;4860666;29;20248;-96
2022/06/13 18:42:42;;;;;;;1.33;0.53;;;13.40;99.90;;;;;;4842782;29;20219;-94
2022/06/13 18:45:15;;;;;;;2.00;0.63;;;13.30;99.90;;;;;;4842945;29;20253;-96
2022/06/13 18:47:47;;;;;;;4.37;0.87;;;13.30;99.90;;;;;;4845217;29;20216;-94
2022/06/13 18:50:20;;;;;;;2.93;0.60;;;13.30;99.90;;;;;;4851376;29;20223;-96
2022/06/13 18:52:55;;;;;;;2.23;0.60;;;13.40;99.90;;;;;;4850709;29;20212;-96
2022/06/13 18:55:27;;;;;;;1.63;0.40;;;13.60;99.90;;;;;;4865273;29;20206;-95
2022/06/13 19:09:10;;;;;;;1.43;0.70;;;14.20;99.90;;;;;;5282342;24;20239;-96
2022/06/13 20:35:27;;;;;;;1.93;1.00;;;15.10;99.90;;;;;;5735922;23;20265;-96
2022/06/13 21:10:44;;;;;;;4.27;1.37;;;13.90;99.90;;;;;;4987448;23;20279;-96
2022/06/13 21:13:17;;;;;;;3.20;1.37;;;13.80;99.90;;;;;;4878424;29;20215;-96
2022/06/13 22:16:07;;;;;;;3.13;2.10;;;14.20;99.90;;;;;;5751594;23;20521;-96
